Time;durP1;ratioP1;P1;durP2;ratioP2;P2;SDS_P1;SDS_P2;PMS_P1;PMS_P2;Temp;Humidity;BMP_temperature;BMP_pressure;BME280_temperature;BME280_humidity;BME280_pressure;Samples;Min_cycle;Max_cycle;Signal;HPM_P1;HPM_P2
2022/10/28 00:00:23;;;;;;;;;;;15.50;99.90;;;;;;5070503;28;19933;-64
2022/10/28 00:02:48;;;;;;;;;;;15.50;99.90;;;;;;5071441;28;19979;-64
2022/10/28 00:05:14;;;;;;;;;;;15.50;99.90;;;;;;5070794;28;20560;-64
2022/10/28 00:07:39;;;;;;;;;;;15.60;99.90;;;;;;5069925;28;19924;-63
2022/10/28 00:10:05;;;;;;;;;;;15.50;99.90;;;;;;5070011;28;20023;-64
2022/10/28 00:12:35;;;;;;;;;;;15.50;99.90;;;;;;5070263;28;20363;-64
2022/10/28 00:15:00;;;;;;;;;;;15.50;99.90;;;;;;5103800;28;19978;-64
2022/10/28 00:17:26;;;;;;;;;;;15.60;99.90;;;;;;5069817;28;20367;-64
2022/10/28 00:19:52;;;;;;;;;;;15.50;99.90;;;;;;5103708;28;19970;-67
2022/10/28 00:22:17;;;;;;;;;;;15.60;99.90;;;;;;5070740;28;19928;-65
2022/10/28 00:24:43;;;;;;;;;;;15.60;99.90;;;;;;5088045;28;19924;-64
2022/10/28 00:27:08;;;;;;;;;;;15.60;99.90;;;;;;5073283;28;19924;-65
2022/10/28 00:29:34;;;;;;;;;;;15.70;99.90;;;;;;5074536;28;19951;-64
2022/10/28 00:31:59;;;;;;;;;;;15.70;99.90;;;;;;5074641;28;20007;-68
2022/10/28 00:34:25;;;;;;;;;;;15.70;99.90;;;;;;5074654;28;20286;-64
2022/10/28 00:36:50;;;;;;;;;;;15.80;99.90;;;;;;5090058;28;20023;-64
2022/10/28 00:39:17;;;;;;;;;;;15.80;99.90;;;;;;5072854;28;19931;-65
2022/10/28 00:41:47;;;;;;;;;;;15.80;99.90;;;;;;5073586;28;19979;-64
2022/10/28 00:44:31;;;;;;;;;;;15.80;99.90;;;;;;5074303;28;20118;-63
2022/10/28 00:46:57;;;;;;;;;;;15.80;99.90;;;;;;5073541;28;19924;-65
2022/10/28 00:49:29;;;;;;;;;;;15.80;99.90;;;;;;5073839;28;19947;-64
2022/10/28 00:51:57;;;;;;;;;;;15.80;99.90;;;;;;5073289;28;19928;-66
2022/10/28 00:54:22;;;;;;;;;;;15.80;99.90;;;;;;5073949;28;19920;-64
2022/10/28 00:56:49;;;;;;;;;;;15.70;99.90;;;;;;5074278;28;19931;-63
2022/10/28 00:59:20;;;;;;;;;;;15.70;99.90;;;;;;5073673;28;19924;-65
2022/10/28 01:01:46;;;;;;;;;;;15.70;99.90;;;;;;5073321;28;19925;-64
2022/10/28 01:04:12;;;;;;;;;;;15.70;99.90;;;;;;5073895;28;19932;-64
2022/10/28 01:06:37;;;;;;;;;;;15.60;99.90;;;;;;5074425;28;20351;-63
2022/10/28 01:09:03;;;;;;;;;;;15.60;99.90;;;;;;5073948;28;19978;-67
2022/10/28 01:11:42;;;;;;;;;;;15.60;99.90;;;;;;5106309;28;19925;-64
2022/10/28 01:14:07;;;;;;;;;;;15.50;99.90;;;;;;5106212;28;19925;-65
2022/10/28 01:16:45;;;;;;;;;;;15.50;99.90;;;;;;5073008;28;20441;-63
2022/10/28 01:19:49;;;;;;;;;;;15.50;99.90;;;;;;5106094;28;20261;-63
2022/10/28 01:22:19;;;;;;;;;;;15.50;99.90;;;;;;5072524;28;19925;-64
2022/10/28 01:25:04;;;;;;;;;;;15.40;99.90;;;;;;5072851;28;19950;-65
2022/10/28 01:27:29;;;;;;;;;;;15.40;99.90;;;;;;5073243;28;20364;-65
2022/10/28 01:30:14;;;;;;;;;;;15.50;99.90;;;;;;5089354;28;19924;-64
2022/10/28 01:32:45;;;;;;;;;;;15.40;99.90;;;;;;5072507;28;19947;-64
2022/10/28 01:35:13;;;;;;;;;;;15.40;99.90;;;;;;5073263;28;19950;-65
2022/10/28 01:37:46;;;;;;;;;;;15.40;99.90;;;;;;5072831;28;19924;-64
2022/10/28 01:40:32;;;;;;;;;;;15.40;99.90;;;;;;5073046;28;19928;-63
2022/10/28 01:43:21;;;;;;;;;;;15.30;99.90;;;;;;5072093;28;20436;-64
2022/10/28 01:45:47;;;;;;;;;;;15.30;99.90;;;;;;5105955;28;19925;-64
2022/10/28 01:48:15;;;;;;;;;;;15.30;99.90;;;;;;5072731;28;19925;-64
2022/10/28 01:50:50;;;;;;;;;;;15.20;99.90;;;;;;5072736;28;20399;-63
2022/10/28 01:53:17;;;;;;;;;;;15.20;99.90;;;;;;5088261;28;20017;-65
2022/10/28 01:55:45;;;;;;;;;;;15.10;99.90;;;;;;5072994;28;19925;-63
2022/10/28 01:58:12;;;;;;;;;;;15.10;99.90;;;;;;5105558;28;20011;-68
2022/10/28 02:00:38;;;;;;;;;;;15.10;99.90;;;;;;5071846;28;19930;-64
2022/10/28 02:03:07;;;;;;;;;;;15.10;99.90;;;;;;5071870;28;20019;-64
2022/10/28 02:05:37;;;;;;;;;;;15.00;99.90;;;;;;5072450;28;19983;-64
2022/10/28 02:08:14;;;;;;;;;;;15.00;99.90;;;;;;5088592;28;19932;-64
2022/10/28 02:10:45;;;;;;;;;;;15.00;99.90;;;;;;5071864;28;20363;-64
2022/10/28 02:13:12;;;;;;;;;;;15.00;99.90;;;;;;5071810;28;19928;-64
2022/10/28 02:15:42;;;;;;;;;;;15.00;99.90;;;;;;5105399;28;19924;-65
2022/10/28 02:18:07;;;;;;;;;;;14.90;99.90;;;;;;5088199;28;19978;-63
2022/10/28 02:20:48;;;;;;;;;;;14.90;99.90;;;;;;5072004;28;19929;-63
2022/10/28 02:23:13;;;;;;;;;;;14.90;99.90;;;;;;5087527;28;20562;-67
2022/10/28 02:25:45;;;;;;;;;;;14.80;99.90;;;;;;5105138;28;19932;-63
2022/10/28 02:28:20;;;;;;;;;;;14.80;99.90;;;;;;5072571;28;20019;-63
2022/10/28 02:30:46;;;;;;;;;;;14.80;99.90;;;;;;5072365;28;20302;-64
2022/10/28 02:33:15;;;;;;;;;;;14.70;99.90;;;;;;5071731;28;20034;-64
2022/10/28 02:35:46;;;;;;;;;;;14.70;99.90;;;;;;5071778;28;19971;-64
2022/10/28 02:38:32;;;;;;;;;;;14.70;99.90;;;;;;5088041;28;20288;-63
2022/10/28 02:41:01;;;;;;;;;;;14.70;99.90;;;;;;5072030;28;19966;-64
2022/10/28 02:43:28;;;;;;;;;;;14.70;99.90;;;;;;5071877;28;19935;-64
2022/10/28 02:45:56;;;;;;;;;;;14.70;99.90;;;;;;5087641;28;19936;-64
2022/10/28 02:48:25;;;;;;;;;;;14.70;99.90;;;;;;5103707;28;19924;-64
2022/10/28 02:51:01;;;;;;;;;;;14.60;99.90;;;;;;5104329;28;19932;-64
2022/10/28 02:53:32;;;;;;;;;;;14.60;99.90;;;;;;5070187;28;20251;-64
2022/10/28 02:55:59;;;;;;;;;;;14.60;99.90;;;;;;5070903;28;19924;-64
2022/10/28 02:58:25;;;;;;;;;;;14.50;99.90;;;;;;5071592;28;19968;-62
2022/10/28 03:00:50;;;;;;;;;;;14.60;99.90;;;;;;5104650;28;19924;-62
2022/10/28 03:03:16;;;;;;;;;;;14.50;99.90;;;;;;5104422;28;19947;-65
2022/10/28 03:05:42;;;;;;;;;;;14.50;99.90;;;;;;5070443;28;19947;-63
2022/10/28 03:08:07;;;;;;;;;;;14.50;99.90;;;;;;5104293;28;19924;-63
2022/10/28 03:10:33;;;;;;;;;;;14.50;99.90;;;;;;5071505;28;19929;-63
2022/10/28 03:12:59;;;;;;;;;;;14.40;99.90;;;;;;5087646;28;19931;-63
2022/10/28 03:15:24;;;;;;;;;;;14.50;99.90;;;;;;5071320;28;19974;-63
2022/10/28 03:17:50;;;;;;;;;;;14.40;99.90;;;;;;5103908;28;19924;-64
2022/10/28 03:20:15;;;;;;;;;;;14.40;99.90;;;;;;5087605;28;19925;-63
2022/10/28 03:22:41;;;;;;;;;;;14.40;99.90;;;;;;5070169;28;19935;-63
2022/10/28 03:25:07;;;;;;;;;;;14.30;99.90;;;;;;5071627;28;19932;-63
2022/10/28 03:27:32;;;;;;;;;;;14.40;99.90;;;;;;5071181;28;19977;-63
2022/10/28 03:29:58;;;;;;;;;;;14.40;99.90;;;;;;5071744;28;19931;-63
2022/10/28 03:32:23;;;;;;;;;;;14.30;99.90;;;;;;5104048;28;19943;-67
2022/10/28 03:34:49;;;;;;;;;;;14.30;99.90;;;;;;5071467;28;19928;-64
2022/10/28 03:37:14;;;;;;;;;;;14.30;99.90;;;;;;5071530;28;19932;-63
2022/10/28 03:39:40;;;;;;;;;;;14.30;99.90;;;;;;5071034;28;20394;-63
2022/10/28 03:42:06;;;;;;;;;;;14.30;99.90;;;;;;5070357;28;19952;-63
2022/10/28 03:44:31;;;;;;;;;;;14.30;99.90;;;;;;5071159;28;19925;-63
2022/10/28 03:46:57;;;;;;;;;;;14.30;99.90;;;;;;5070386;28;19968;-63
2022/10/28 03:49:22;;;;;;;;;;;14.20;99.90;;;;;;5103413;28;19928;-63
2022/10/28 03:51:48;;;;;;;;;;;14.20;99.90;;;;;;5070900;28;19932;-63
2022/10/28 03:54:13;;;;;;;;;;;14.50;99.90;;;;;;5103752;28;19994;-64
2022/10/28 03:56:39;;;;;;;;;;;14.20;99.90;;;;;;5070852;28;20417;-64
2022/10/28 03:59:08;;;;;;;;;;;14.20;99.90;;;;;;5070444;28;19925;-63
2022/10/28 04:01:34;;;;;;;;;;;14.20;99.90;;;;;;5073803;28;20018;-63
2022/10/28 04:04:00;;;;;;;;;;;14.10;99.90;;;;;;5075286;28;20002;-63
2022/10/28 04:06:25;;;;;;;;;;;14.10;99.90;;;;;;5075193;28;20272;-63
2022/10/28 04:08:51;;;;;;;;;;;14.10;99.90;;;;;;5073780;28;19979;-63
2022/10/28 04:11:16;;;;;;;;;;;14.10;99.90;;;;;;5107942;28;19924;-63
2022/10/28 04:13:42;;;;;;;;;;;14.10;99.90;;;;;;5090207;28;20034;-63
2022/10/28 04:16:07;;;;;;;;;;;14.00;99.90;;;;;;5074472;28;19924;-63
2022/10/28 04:18:34;;;;;;;;;;;14.10;99.90;;;;;;5072965;28;20068;-63
2022/10/28 04:21:00;;;;;;;;;;;14.00;99.90;;;;;;5074313;28;20402;-64
2022/10/28 04:23:25;;;;;;;;;;;14.00;99.90;;;;;;5090383;28;19924;-63
2022/10/28 04:25:52;;;;;;;;;;;14.00;99.90;;;;;;5073352;28;20108;-64
2022/10/28 04:28:18;;;;;;;;;;;14.00;99.90;;;;;;5074769;28;19932;-64
2022/10/28 04:30:47;;;;;;;;;;;14.00;99.90;;;;;;5107402;28;19928;-63
2022/10/28 04:33:13;;;;;;;;;;;14.00;99.90;;;;;;5107744;28;19925;-63
2022/10/28 04:35:41;;;;;;;;;;;13.90;99.90;;;;;;5072901;28;19931;-63
2022/10/28 04:38:07;;;;;;;;;;;13.90;99.90;;;;;;5074666;28;19925;-63
2022/10/28 04:40:32;;;;;;;;;;;14.00;99.90;;;;;;5074231;28;19930;-68
2022/10/28 04:42:58;;;;;;;;;;;13.90;99.90;;;;;;5074680;28;19924;-64
2022/10/28 04:45:23;;;;;;;;;;;13.90;99.90;;;;;;5074476;28;19954;-64
2022/10/28 04:47:55;;;;;;;;;;;13.90;99.90;;;;;;5072957;28;20028;-64
2022/10/28 04:50:22;;;;;;;;;;;13.90;99.90;;;;;;5105855;28;20300;-63
2022/10/28 04:52:48;;;;;;;;;;;13.90;99.90;;;;;;5073940;28;19924;-63
2022/10/28 04:55:13;;;;;;;;;;;13.80;99.90;;;;;;5073131;28;19928;-64
2022/10/28 04:57:39;;;;;;;;;;;13.90;99.90;;;;;;5072295;28;19924;-64
2022/10/28 05:00:05;;;;;;;;;;;13.80;99.90;;;;;;5072861;28;19925;-65
2022/10/28 05:02:30;;;;;;;;;;;13.80;99.90;;;;;;5107025;28;20401;-65
2022/10/28 05:04:59;;;;;;;;;;;13.80;99.90;;;;;;5106720;28;19928;-64
2022/10/28 05:07:24;;;;;;;;;;;13.80;99.90;;;;;;5106632;28;19925;-64
2022/10/28 05:09:50;;;;;;;;;;;13.80;99.90;;;;;;5073175;28;20015;-64
2022/10/28 05:12:15;;;;;;;;;;;13.80;99.90;;;;;;5071796;28;20418;-64
2022/10/28 05:14:41;;;;;;;;;;;13.70;99.90;;;;;;5089412;28;20024;-63
2022/10/28 05:17:07;;;;;;;;;;;13.70;99.90;;;;;;5072886;28;19924;-64
2022/10/28 05:19:33;;;;;;;;;;;13.70;99.90;;;;;;5073663;28;19924;-64
2022/10/28 05:21:58;;;;;;;;;;;13.80;99.90;;;;;;5072303;28;19980;-64
2022/10/28 05:24:24;;;;;;;;;;;13.70;99.90;;;;;;5106486;28;20042;-63
2022/10/28 05:26:49;;;;;;;;;;;13.70;99.90;;;;;;5088734;28;19924;-64
2022/10/28 05:29:17;;;;;;;;;;;13.70;99.90;;;;;;5073419;28;19939;-64
2022/10/28 05:31:42;;;;;;;;;;;13.70;99.90;;;;;;5106249;28;19967;-64
2022/10/28 05:34:08;;;;;;;;;;;13.70;99.90;;;;;;5105582;28;19979;-64
2022/10/28 05:36:33;;;;;;;;;;;13.60;99.90;;;;;;5073380;28;19929;-64
2022/10/28 05:38:59;;;;;;;;;;;13.60;99.90;;;;;;5071773;28;20110;-64
2022/10/28 05:41:24;;;;;;;;;;;13.60;99.90;;;;;;5105606;28;19951;-64
2022/10/28 05:43:50;;;;;;;;;;;13.60;99.90;;;;;;5071706;28;20018;-64
2022/10/28 05:46:16;;;;;;;;;;;13.50;99.90;;;;;;5072049;28;20282;-64
2022/10/28 05:48:42;;;;;;;;;;;13.50;99.90;;;;;;5072198;28;19989;-68
2022/10/28 05:51:07;;;;;;;;;;;13.50;99.90;;;;;;5071338;28;19925;-63
2022/10/28 05:53:33;;;;;;;;;;;13.50;99.90;;;;;;5088711;28;19924;-64
2022/10/28 05:55:58;;;;;;;;;;;13.50;99.90;;;;;;5072277;28;20027;-64
2022/10/28 05:58:24;;;;;;;;;;;13.50;99.90;;;;;;5071761;28;19931;-63
2022/10/28 06:00:49;;;;;;;;;;;13.40;99.90;;;;;;5071522;28;19925;-63
2022/10/28 06:03:15;;;;;;;;;;;13.50;99.90;;;;;;5073218;28;19932;-63
2022/10/28 06:05:43;;;;;;;;;;;13.40;99.90;;;;;;5072813;28;19928;-63
2022/10/28 06:08:10;;;;;;;;;;;13.40;99.90;;;;;;5071491;28;19972;-64
2022/10/28 06:10:35;;;;;;;;;;;13.40;99.90;;;;;;5088663;28;19925;-63
2022/10/28 06:13:01;;;;;;;;;;;13.40;99.90;;;;;;5071747;28;19924;-63
2022/10/28 06:15:26;;;;;;;;;;;13.40;99.90;;;;;;5088477;28;19990;-63
2022/10/28 06:17:52;;;;;;;;;;;13.30;99.90;;;;;;5072181;28;19924;-64
2022/10/28 06:20:17;;;;;;;;;;;13.40;99.90;;;;;;5071605;28;19931;-63
2022/10/28 06:22:50;;;;;;;;;;;13.40;99.90;;;;;;5071344;28;20513;-63
2022/10/28 06:25:16;;;;;;;;;;;13.40;99.90;;;;;;5105079;28;20304;-64
2022/10/28 06:27:41;;;;;;;;;;;13.40;99.90;;;;;;5105454;28;19935;-65
2022/10/28 06:30:07;;;;;;;;;;;13.50;99.90;;;;;;5087810;28;20562;-67
2022/10/28 06:32:33;;;;;;;;;;;13.50;99.90;;;;;;5104958;28;19982;-67
2022/10/28 06:34:58;;;;;;;;;;;13.50;99.90;;;;;;5104442;28;19979;-65
2022/10/28 06:37:24;;;;;;;;;;;13.50;99.90;;;;;;5087838;28;20357;-66
2022/10/28 06:39:51;;;;;;;;;;;13.50;99.90;;;;;;5087365;28;19944;-71
2022/10/28 06:42:17;;;;;;;;;;;13.60;99.90;;;;;;5072092;28;19924;-66
2022/10/28 06:44:43;;;;;;;;;;;13.60;99.90;;;;;;5070919;28;19978;-65
2022/10/28 06:47:08;;;;;;;;;;;13.40;99.90;;;;;;5070519;28;20351;-65
2022/10/28 06:49:34;;;;;;;;;;;13.80;99.90;;;;;;5071529;28;19985;-67
2022/10/28 06:51:59;;;;;;;;;;;13.90;99.90;;;;;;5087457;28;19925;-66
2022/10/28 06:54:25;;;;;;;;;;;13.90;99.90;;;;;;5071083;28;20306;-66
2022/10/28 06:56:50;;;;;;;;;;;14.00;99.90;;;;;;5071451;28;19940;-71
2022/10/28 06:59:16;;;;;;;;;;;14.00;99.90;;;;;;5087095;28;19924;-66
2022/10/28 07:01:42;;;;;;;;;;;14.10;99.90;;;;;;5087485;28;20372;-65
2022/10/28 07:04:09;;;;;;;;;;;14.10;99.90;;;;;;5104333;28;20278;-65
2022/10/28 07:06:35;;;;;;;;;;;14.20;99.90;;;;;;5070758;28;20288;-66
2022/10/28 07:09:00;;;;;;;;;;;14.30;99.90;;;;;;5069921;28;19931;-66
2022/10/28 07:11:26;;;;;;;;;;;14.40;99.90;;;;;;5070598;28;20371;-66
2022/10/28 07:13:52;;;;;;;;;;;14.70;99.90;;;;;;5070631;28;19924;-67
2022/10/28 07:16:17;;;;;;;;;;;15.10;99.90;;;;;;5070074;28;19924;-67
2022/10/28 07:18:43;;;;;;;;;;;15.40;99.90;;;;;;5087136;28;20083;-67
2022/10/28 07:21:08;;;;;;;;;;;15.70;99.90;;;;;;5070178;28;19967;-67
2022/10/28 07:23:34;;;;;;;;;;;16.10;99.90;;;;;;5070593;28;19931;-66
2022/10/28 07:26:00;;;;;;;;;;;16.40;99.90;;;;;;5086788;28;19925;-67
2022/10/28 07:28:26;;;;;;;;;;;16.70;99.90;;;;;;5071294;28;19924;-68
2022/10/28 07:30:51;;;;;;;;;;;17.10;99.90;;;;;;5103635;28;19972;-67
2022/10/28 07:33:17;;;;;;;;;;;17.30;99.90;;;;;;5070025;28;20007;-67
2022/10/28 07:35:43;;;;;;;;;;;;;;;;;;5103559;28;20262;-67
2022/10/28 07:38:09;;;;;;;;;;;17.50;99.90;;;;;;5070008;28;19931;-68
2022/10/28 07:40:35;;;;;;;;;;;17.80;99.90;;;;;;5071394;28;19924;-72
2022/10/28 07:43:00;;;;;;;;;;;17.90;99.90;;;;;;5070806;28;20049;-69
2022/10/28 07:45:26;;;;;;;;;;;17.80;99.90;;;;;;5070069;28;20378;-69
2022/10/28 07:47:52;;;;;;;;;;;17.60;99.90;;;;;;5071324;28;19937;-68
2022/10/28 07:50:17;;;;;;;;;;;17.40;99.90;;;;;;5069458;28;19925;-69
2022/10/28 07:52:43;;;;;;;;;;;17.20;99.90;;;;;;5103879;28;20011;-73
2022/10/28 07:55:09;;;;;;;;;;;17.10;99.90;;;;;;5069858;28;20035;-69
2022/10/28 07:57:34;;;;;;;;;;;17.00;99.90;;;;;;5071204;28;19924;-69
2022/10/28 08:00:00;;;;;;;;;;;16.90;99.90;;;;;;5070938;28;20022;-76
2022/10/28 08:02:26;;;;;;;;;;;16.80;99.90;;;;;;5104147;28;19947;-69
2022/10/28 08:04:51;;;;;;;;;;;16.80;99.90;;;;;;5070893;28;19931;-69
2022/10/28 08:07:17;;;;;;;;;;;16.80;99.90;;;;;;5069915;28;19942;-70
2022/10/28 08:09:43;;;;;;;;;;;16.80;99.90;;;;;;5071301;28;19947;-71
2022/10/28 08:12:11;;;;;;;;;;;16.80;99.90;;;;;;5070951;28;20015;-69
2022/10/28 08:14:37;;;;;;;;;;;16.90;99.90;;;;;;5104040;28;20011;-70
2022/10/28 08:17:02;;;;;;;;;;;17.20;99.90;;;;;;5071502;28;19967;-80
2022/10/28 08:19:28;;;;;;;;;;;17.70;99.90;;;;;;5070335;28;19925;-70
2022/10/28 08:21:54;;;;;;;;;;;;;;;;;;5071323;28;19929;-69
2022/10/28 08:24:19;;;;;;;;;;;17.90;99.90;;;;;;5069778;28;19924;-71
2022/10/28 08:26:45;;;;;;;;;;;18.90;99.90;;;;;;5103998;28;19925;-69
2022/10/28 08:29:11;;;;;;;;;;;19.40;99.90;;;;;;5070599;28;19932;-70
2022/10/28 08:31:37;;;;;;;;;;;19.50;99.90;;;;;;5086807;28;20015;-72
2022/10/28 08:34:03;;;;;;;;;;;19.40;99.90;;;;;;5071319;28;19983;-71
2022/10/28 08:36:29;;;;;;;;;;;19.20;99.90;;;;;;5069699;28;19925;-70
2022/10/28 08:38:54;;;;;;;;;;;18.90;99.90;;;;;;5069514;28;19930;-70
2022/10/28 08:41:29;;;;;;;;;;;18.70;99.90;;;;;;5070511;28;19924;-70
2022/10/28 08:44:03;;;;;;;;;;;18.60;99.90;;;;;;5070689;28;20015;-69
2022/10/28 08:46:40;;;;;;;;;;;18.40;99.90;;;;;;5071596;28;20285;-70
2022/10/28 08:49:11;;;;;;;;;;;18.30;99.90;;;;;;5074513;28;19924;-78
2022/10/28 08:51:44;;;;;;;;;;;18.20;99.90;;;;;;5073409;28;20374;-70
2022/10/28 08:54:36;;;;;;;;;;;17.80;99.90;;;;;;5072778;28;19924;-71
2022/10/28 08:57:02;;;;;;;;;;;18.10;99.90;;;;;;5070898;28;20291;-73
2022/10/28 08:59:31;;;;;;;;;;;18.00;99.90;;;;;;5073904;28;19920;-68
2022/10/28 09:02:10;;;;;;;;;;;18.00;99.90;;;;;;5089957;28;20345;-72
2022/10/28 09:04:40;;;;;;;;;;;17.90;99.90;;;;;;5074401;28;20357;-67
2022/10/28 09:07:14;;;;;;;;;;;18.00;99.90;;;;;;5074331;28;19954;-68
2022/10/28 09:09:40;;;;;;;;;;;18.10;99.90;;;;;;5073409;28;19925;-67
2022/10/28 09:12:05;;;;;;;;;;;18.10;99.90;;;;;;5074361;28;19947;-69
2022/10/28 09:14:49;;;;;;;;;;;18.10;99.90;;;;;;5073363;28;20501;-73
2022/10/28 09:17:15;;;;;;;;;;;18.00;99.90;;;;;;5073569;28;19929;-67
2022/10/28 09:19:56;;;;;;;;;;;18.00;99.90;;;;;;5072292;28;19925;-70
2022/10/28 09:22:29;;;;;;;;;;;18.00;99.90;;;;;;5106066;28;19931;-68
2022/10/28 09:24:58;;;;;;;;;;;18.00;99.90;;;;;;5072623;28;19925;-63
2022/10/28 09:27:35;;;;;;;;;;;18.00;99.90;;;;;;5089006;28;20385;-67
2022/10/28 09:30:09;;;;;;;;;;;18.00;99.90;;;;;;5072265;28;19924;-67
2022/10/28 09:32:34;;;;;;;;;;;18.00;99.90;;;;;;5073239;28;19925;-68
2022/10/28 09:35:05;;;;;;;;;;;18.00;99.90;;;;;;5072303;28;20046;-66
2022/10/28 09:37:51;;;;;;;;;;;18.00;99.90;;;;;;5089250;28;19934;-67
2022/10/28 09:40:28;;;;;;;;;;;18.00;99.90;;;;;;5072476;28;20387;-67
2022/10/28 09:43:12;;;;;;;;;;;18.00;99.90;;;;;;5073320;28;20387;-67
2022/10/28 09:45:42;;;;;;;;;;;18.00;99.90;;;;;;5072875;28;19928;-65
2022/10/28 09:48:18;;;;;;;;;;;18.10;99.90;;;;;;5071694;28;19924;-66
2022/10/28 09:50:44;;;;;;;;;;;18.10;99.90;;;;;;5073090;28;20076;-66
2022/10/28 09:53:18;;;;;;;;;;;18.10;99.90;;;;;;5073087;28;19942;-68
2022/10/28 09:55:44;;;;;;;;;;;18.10;99.90;;;;;;5072978;28;20011;-66
2022/10/28 09:58:11;;;;;;;;;;;18.10;99.90;;;;;;5105220;28;20027;-66
2022/10/28 10:00:36;;;;;;;;;;;18.10;99.90;;;;;;5071745;28;19956;-67
2022/10/28 10:03:02;;;;;;;;;;;18.10;99.90;;;;;;5072941;28;20434;-72
2022/10/28 10:05:29;;;;;;;;;;;18.10;99.90;;;;;;5088408;28;19932;-69
2022/10/28 10:08:15;;;;;;;;;;;18.10;99.90;;;;;;5071788;28;19924;-69
2022/10/28 10:10:50;;;;;;;;;;;18.10;99.90;;;;;;5072787;28;20343;-69
2022/10/28 10:13:17;;;;;;;;;;;18.10;99.90;;;;;;5072025;28;19924;-68
2022/10/28 10:15:49;;;;;;;;;;;18.10;99.90;;;;;;5072576;28;20019;-68
2022/10/28 10:18:18;;;;;;;;;;;18.20;99.90;;;;;;5105386;28;19951;-68
2022/10/28 10:20:52;;;;;;;;;;;18.20;99.90;;;;;;5105357;28;19940;-68
2022/10/28 10:23:28;;;;;;;;;;;18.30;99.90;;;;;;5088444;28;19924;-68
2022/10/28 10:25:58;;;;;;;;;;;18.30;99.90;;;;;;5071382;28;19928;-68
2022/10/28 10:28:24;;;;;;;;;;;18.30;99.90;;;;;;5071715;28;20314;-68
2022/10/28 10:30:51;;;;;;;;;;;18.40;99.90;;;;;;5071167;28;19925;-69
2022/10/28 10:33:22;;;;;;;;;;;18.40;99.90;;;;;;5105357;28;19962;-70
2022/10/28 10:35:52;;;;;;;;;;;18.50;99.90;;;;;;5071322;28;19932;-70
2022/10/28 10:38:18;;;;;;;;;;;18.50;99.90;;;;;;5070999;28;19924;-70
2022/10/28 10:40:48;;;;;;;;;;;18.60;99.90;;;;;;5087152;28;20425;-70
2022/10/28 10:43:16;;;;;;;;;;;18.60;99.90;;;;;;5072212;28;19982;-70
2022/10/28 10:46:02;;;;;;;;;;;18.60;99.90;;;;;;5071878;28;19967;-70
2022/10/28 10:48:28;;;;;;;;;;;18.70;99.90;;;;;;5070599;28;20023;-69
2022/10/28 10:50:54;;;;;;;;;;;18.70;99.90;;;;;;5071470;28;19928;-69
2022/10/28 10:53:32;;;;;;;;;;;18.80;99.90;;;;;;5070852;28;19925;-68
2022/10/28 10:56:00;;;;;;;;;;;18.80;99.90;;;;;;5071885;28;19928;-69
2022/10/28 10:58:27;;;;;;;;;;;18.90;99.90;;;;;;5071611;28;20298;-69
2022/10/28 11:00:54;;;;;;;;;;;19.00;99.90;;;;;;5071441;28;19925;-70
2022/10/28 11:03:30;;;;;;;;;;;19.00;99.90;;;;;;5071920;28;20024;-67
2022/10/28 11:05:57;;;;;;;;;;;19.10;99.90;;;;;;5071751;28;19924;-69
2022/10/28 11:08:33;;;;;;;;;;;19.10;99.90;;;;;;5071267;28;19931;-69
2022/10/28 11:11:12;;;;;;;;;;;19.10;99.90;;;;;;5071405;28;19935;-69
2022/10/28 11:13:38;;;;;;;;;;;19.10;99.90;;;;;;5070211;28;19986;-68
2022/10/28 11:16:06;;;;;;;;;;;19.10;99.90;;;;;;5071709;28;19943;-69
2022/10/28 11:18:38;;;;;;;;;;;19.10;99.90;;;;;;5071144;28;20001;-68
2022/10/28 11:21:09;;;;;;;;;;;19.10;99.90;;;;;;5069795;28;19928;-68
2022/10/28 11:23:38;;;;;;;;;;;19.20;99.90;;;;;;5071224;28;19924;-68
2022/10/28 11:26:06;;;;;;;;;;;19.30;99.90;;;;;;5071540;28;20425;-68
2022/10/28 11:28:47;;;;;;;;;;;19.30;99.90;;;;;;5086517;28;19986;-68
2022/10/28 11:31:18;;;;;;;;;;;19.30;99.90;;;;;;5070443;28;19931;-69
2022/10/28 11:34:02;;;;;;;;;;;19.30;99.90;;;;;;5070948;28;19928;-69
2022/10/28 11:36:43;;;;;;;;;;;19.40;99.90;;;;;;5070387;28;19975;-70
2022/10/28 11:39:12;;;;;;;;;;;19.50;99.90;;;;;;5070138;28;20330;-69
2022/10/28 11:41:37;;;;;;;;;;;19.50;99.90;;;;;;5070018;28;20327;-66
2022/10/28 11:44:10;;;;;;;;;;;19.50;99.90;;;;;;5070241;28;19987;-65
2022/10/28 11:46:42;;;;;;;;;;;19.60;99.90;;;;;;5070634;28;19925;-69
2022/10/28 11:49:23;;;;;;;;;;;19.60;99.90;;;;;;5069598;28;19966;-67
2022/10/28 11:51:54;;;;;;;;;;;19.60;99.90;;;;;;5070564;28;20011;-69
2022/10/28 11:54:25;;;;;;;;;;;19.60;99.90;;;;;;5071311;28;20023;-69
2022/10/28 11:56:57;;;;;;;;;;;19.70;99.90;;;;;;5070711;28;20456;-69
2022/10/28 11:59:22;;;;;;;;;;;19.80;99.90;;;;;;5071032;28;20034;-70
2022/10/28 12:02:03;;;;;;;;;;;19.80;99.90;;;;;;5069485;28;19924;-69
2022/10/28 12:04:37;;;;;;;;;;;19.90;99.90;;;;;;5071041;28;19925;-69
2022/10/28 12:07:15;;;;;;;;;;;20.00;99.90;;;;;;5069809;28;19925;-70
2022/10/28 12:09:50;;;;;;;;;;;20.00;99.90;;;;;;5070731;28;19932;-70
2022/10/28 12:12:27;;;;;;;;;;;20.10;99.90;;;;;;5070969;28;19930;-70
2022/10/28 12:15:13;;;;;;;;;;;20.10;99.90;;;;;;5103540;28;19935;-69
2022/10/28 12:17:48;;;;;;;;;;;20.10;99.90;;;;;;5070021;28;20377;-71
2022/10/28 12:20:24;;;;;;;;;;;20.10;99.90;;;;;;5104116;28;19940;-71
2022/10/28 12:22:57;;;;;;;;;;;20.10;99.90;;;;;;5074338;28;19932;-70
2022/10/28 12:25:25;;;;;;;;;;;20.10;99.90;;;;;;5073706;28;19969;-71
2022/10/28 12:27:54;;;;;;;;;;;20.20;99.90;;;;;;5072932;28;19924;-69
2022/10/28 12:30:24;;;;;;;;;;;20.10;99.90;;;;;;5074749;28;19924;-69
2022/10/28 12:33:13;;;;;;;;;;;20.10;99.90;;;;;;5073994;28;19932;-70
2022/10/28 12:35:48;;;;;;;;;;;20.10;99.90;;;;;;5072046;28;20419;-72
2022/10/28 12:38:23;;;;;;;;;;;20.10;99.90;;;;;;5074432;28;19928;-69
2022/10/28 12:40:59;;;;;;;;;;;20.10;99.90;;;;;;5073690;28;20452;-69
2022/10/28 12:43:25;;;;;;;;;;;20.10;99.90;;;;;;5074433;28;19931;-69
2022/10/28 12:45:52;;;;;;;;;;;20.10;99.90;;;;;;5073675;28;19925;-69
2022/10/28 12:48:26;;;;;;;;;;;20.10;99.90;;;;;;5074203;28;20030;-68
2022/10/28 12:51:18;;;;;;;;;;;20.10;99.90;;;;;;5073415;28;19924;-69
2022/10/28 12:54:02;;;;;;;;;;;20.10;99.90;;;;;;5072351;28;19928;-70
2022/10/28 12:56:40;;;;;;;;;;;20.00;99.90;;;;;;5074046;28;19924;-71
2022/10/28 12:59:16;;;;;;;;;;;20.00;99.90;;;;;;5106820;28;19954;-71
2022/10/28 13:01:47;;;;;;;;;;;20.00;99.90;;;;;;5073984;28;19924;-74
2022/10/28 13:04:13;;;;;;;;;;;20.00;99.90;;;;;;5089629;28;19925;-70
2022/10/28 13:06:47;;;;;;;;;;;20.00;99.90;;;;;;5073864;28;20421;-70
2022/10/28 13:09:13;;;;;;;;;;;20.20;99.90;;;;;;5074026;28;19929;-70
2022/10/28 13:11:47;;;;;;;;;;;20.00;99.90;;;;;;5073968;28;19979;-70
2022/10/28 13:14:31;;;;;;;;;;;20.00;99.90;;;;;;5073657;28;20387;-70
2022/10/28 13:17:12;;;;;;;;;;;20.00;99.90;;;;;;5072187;28;19924;-70
2022/10/28 13:19:52;;;;;;;;;;;20.10;99.90;;;;;;5089284;28;19977;-71
2022/10/28 13:22:28;;;;;;;;;;;20.10;99.90;;;;;;5072714;28;19924;-71
2022/10/28 13:25:12;;;;;;;;;;;20.10;99.90;;;;;;5073297;28;19928;-70
2022/10/28 13:27:38;;;;;;;;;;;20.10;99.90;;;;;;5073313;28;19924;-72
2022/10/28 13:30:05;;;;;;;;;;;20.10;99.90;;;;;;5072036;28;19935;-70
2022/10/28 13:32:35;;;;;;;;;;;20.10;99.90;;;;;;5072586;28;19932;-70
2022/10/28 13:35:09;;;;;;;;;;;20.10;99.90;;;;;;5072852;28;19942;-69
2022/10/28 13:37:35;;;;;;;;;;;20.10;99.90;;;;;;5072000;28;19931;-70
2022/10/28 13:40:01;;;;;;;;;;;20.10;99.90;;;;;;5105504;28;20024;-70
2022/10/28 13:42:31;;;;;;;;;;;20.20;99.90;;;;;;5073304;28;20027;-70
2022/10/28 13:45:00;;;;;;;;;;;20.20;99.90;;;;;;5072815;28;19928;-70
2022/10/28 13:47:26;;;;;;;;;;;20.20;99.90;;;;;;5072106;28;19932;-71
2022/10/28 13:50:07;;;;;;;;;;;20.20;99.90;;;;;;5072541;28;19924;-71
2022/10/28 13:52:32;;;;;;;;;;;20.20;99.90;;;;;;5073205;28;20349;-70
2022/10/28 13:55:10;;;;;;;;;;;20.20;99.90;;;;;;5071614;28;20020;-70
2022/10/28 13:57:37;;;;;;;;;;;20.20;99.90;;;;;;5072810;28;20015;-69
2022/10/28 14:00:20;;;;;;;;;;;20.20;99.90;;;;;;5071470;28;19925;-68
2022/10/28 14:02:47;;;;;;;;;;;20.10;99.90;;;;;;5072982;28;19975;-70
2022/10/28 14:05:16;;;;;;;;;;;20.10;99.90;;;;;;5105229;28;19924;-69
2022/10/28 14:07:56;;;;;;;;;;;20.10;99.90;;;;;;5071852;28;19977;-71
2022/10/28 14:10:29;;;;;;;;;;;20.10;99.90;;;;;;5072622;28;19955;-69
2022/10/28 14:13:00;;;;;;;;;;;20.10;99.90;;;;;;5071233;28;20072;-69
2022/10/28 14:15:32;;;;;;;;;;;20.10;99.90;;;;;;5072872;28;19924;-69
2022/10/28 14:18:05;;;;;;;;;;;20.00;99.90;;;;;;5072294;28;19967;-70
2022/10/28 14:20:31;;;;;;;;;;;20.00;99.90;;;;;;5071309;28;20321;-69
2022/10/28 14:22:57;;;;;;;;;;;20.00;99.90;;;;;;5071921;28;19972;-69
2022/10/28 14:25:42;;;;;;;;;;;19.90;99.90;;;;;;5072200;28;19931;-69
2022/10/28 14:28:26;;;;;;;;;;;19.90;99.90;;;;;;5071973;28;19970;-69
2022/10/28 14:31:07;;;;;;;;;;;19.90;99.90;;;;;;5087570;28;20388;-70